Terminal Aerodrome Forecast
Issued by NWS Sioux Falls, SD

Home | Current Version | Previous Version | Graphics & Text | Print | Product List | Glossary On
Versions: 1 2 3 4 5 6 7 8 9 10 11 12 13 14 15 16
000
FTUS43 KFSD 182320
TAFFSD
TAF
KFSD 182320Z 1900/1924 20010KT P6SM BKN070
     FM190400 29013KT P6SM BKN025
     FM190700 31017G25KT P6SM BKN025
     FM191900 31012KT P6SM SCT035=

USA.gov is the U.S. government's official web portal to all federal, state and local government web resources and services.